createdAt,value
2022-08-27T00:00:22.073Z,53.16
2022-08-27T00:02:54.416Z,54.24
2022-08-27T00:05:26.651Z,54.03
2022-08-27T00:07:57.939Z,54.87
2022-08-27T00:10:28.778Z,55.34
2022-08-27T00:13:12.376Z,54.32
2022-08-27T00:15:41.193Z,53.84
2022-08-27T00:18:11.810Z,53.82
2022-08-27T00:20:41.766Z,54.07
2022-08-27T00:23:13.611Z,53.73
2022-08-27T00:25:45.787Z,53.56
2022-08-27T00:28:19.515Z,53.74
2022-08-27T00:30:49.692Z,53.85
2022-08-27T00:33:23.189Z,53.73
2022-08-27T00:35:54.322Z,53.01
2022-08-27T00:38:25.092Z,53.23
2022-08-27T00:40:55.863Z,53.09
2022-08-27T00:43:32.312Z,53.66
2022-08-27T00:46:08.280Z,53.78
2022-08-27T00:48:41.920Z,53.53
2022-08-27T00:51:13.106Z,53.86
2022-08-27T00:53:47.319Z,53.93
2022-08-27T00:56:25.608Z,53.62
2022-08-27T00:58:59.351Z,53.82
2022-08-27T01:01:31.365Z,54.06
2022-08-27T01:04:06.641Z,53.77
2022-08-27T01:06:38.528Z,54.38
2022-08-27T01:09:14.176Z,54.53
2022-08-27T01:11:45.402Z,54.09
2022-08-27T01:14:24.788Z,53.99
2022-08-27T01:16:58.502Z,55.02
2022-08-27T01:19:38.896Z,55.57
2022-08-27T01:22:21.640Z,55.08
2022-08-27T01:24:59.738Z,55.56
2022-08-27T01:27:34.869Z,55.87
2022-08-27T01:30:08.680Z,56.78
2022-08-27T01:32:39.371Z,56.53
2022-08-27T01:35:18.318Z,57.15
2022-08-27T01:37:50.218Z,56.47
2022-08-27T01:40:23.206Z,56.18
2022-08-27T01:42:56.089Z,55.22
2022-08-27T01:45:33.265Z,56.36
2022-08-27T01:48:05.284Z,56.36
2022-08-27T01:50:40.294Z,56.73
2022-08-27T01:53:16.591Z,55.87
2022-08-27T01:55:53.506Z,57.83
2022-08-27T01:58:29.074Z,56.28
2022-08-27T02:01:07.320Z,56.53
2022-08-27T02:03:40.629Z,57.24
2022-08-27T02:06:17.247Z,56.85
2022-08-27T02:08:52.990Z,56.27
2022-08-27T02:11:24.371Z,55.82
2022-08-27T02:13:57.115Z,55.40
2022-08-27T02:16:29.079Z,55.61
2022-08-27T02:19:02.434Z,55.77
2022-08-27T02:21:32.870Z,55.23
2022-08-27T02:24:07.114Z,56.18
2022-08-27T02:26:37.833Z,55.42
2022-08-27T02:29:11.084Z,56.68
2022-08-27T02:31:42.682Z,55.87
2022-08-27T02:34:16.001Z,55.67
2022-08-27T02:36:48.844Z,55.57
2022-08-27T02:39:20.035Z,56.90
2022-08-27T02:41:50.436Z,56.16
2022-08-27T02:44:23.109Z,57.00
2022-08-27T02:46:55.741Z,57.11
2022-08-27T02:49:32.039Z,56.13
2022-08-27T02:52:04.641Z,55.47
2022-08-27T02:54:37.291Z,55.73
2022-08-27T02:57:09.074Z,57.18
2022-08-27T02:59:40.405Z,57.48
2022-08-27T03:02:11.303Z,57.17
2022-08-27T03:04:42.716Z,56.85
2022-08-27T03:07:14.226Z,56.67
2022-08-27T03:09:53.526Z,55.69
2022-08-27T03:12:28.252Z,56.05
2022-08-27T03:15:00.832Z,55.70
2022-08-27T03:17:53.013Z,56.12
2022-08-27T03:20:25.973Z,56.16
2022-08-27T03:22:55.507Z,56.38
2022-08-27T03:25:26.946Z,57.42
2022-08-27T03:28:01.647Z,56.82
2022-08-27T03:30:34.258Z,57.02
2022-08-27T03:33:06.767Z,57.01
2022-08-27T03:35:38.727Z,57.41
2022-08-27T03:38:08.222Z,56.96
2022-08-27T03:40:38.944Z,55.98
2022-08-27T03:43:08.015Z,55.96
2022-08-27T03:46:00.780Z,55.73
2022-08-27T03:48:27.337Z,56.04
2022-08-27T03:50:57.880Z,55.58
2022-08-27T03:53:33.047Z,56.07
2022-08-27T03:56:04.508Z,56.80
2022-08-27T03:58:36.437Z,56.26
2022-08-27T04:01:07.698Z,56.15
2022-08-27T04:03:41.425Z,56.16
2022-08-27T04:06:10.322Z,56.47
2022-08-27T04:08:42.019Z,56.46
2022-08-27T04:11:15.177Z,56.45
2022-08-27T04:13:49.022Z,56.59
2022-08-27T04:16:18.147Z,56.12
2022-08-27T04:18:48.956Z,56.34
2022-08-27T04:21:19.864Z,56.62
2022-08-27T04:23:49.234Z,56.60
2022-08-27T04:26:20.133Z,57.05
2022-08-27T04:28:53.201Z,56.87
2022-08-27T04:31:26.820Z,56.62
2022-08-27T04:33:58.479Z,55.74
2022-08-27T04:36:29.213Z,56.16
2022-08-27T04:39:08.033Z,57.36
2022-08-27T04:41:38.414Z,57.02
2022-08-27T04:44:11.141Z,55.83
2022-08-27T04:46:40.925Z,55.78
2022-08-27T04:49:15.472Z,56.36
2022-08-27T04:51:45.107Z,55.18
2022-08-27T04:54:18.312Z,55.15
2022-08-27T04:56:51.676Z,56.24
2022-08-27T04:59:24.472Z,56.29
2022-08-27T05:01:54.020Z,55.90
2022-08-27T05:04:26.549Z,56.51
2022-08-27T05:06:58.201Z,56.51
2022-08-27T05:09:37.610Z,56.58
2022-08-27T05:12:09.569Z,56.74
2022-08-27T05:14:39.892Z,55.65
2022-08-27T05:17:09.730Z,55.13
2022-08-27T05:19:41.442Z,54.81
2022-08-27T05:22:11.155Z,55.62
2022-08-27T05:24:44.242Z,55.59
2022-08-27T05:27:16.676Z,55.68
2022-08-27T05:29:52.147Z,55.19
2022-08-27T05:32:22.501Z,55.77
2022-08-27T05:34:54.479Z,55.24
2022-08-27T05:37:24.017Z,54.85
2022-08-27T05:39:54.800Z,54.34
2022-08-27T05:42:25.436Z,53.69
2022-08-27T05:44:57.157Z,54.07
2022-08-27T05:47:29.838Z,53.76
2022-08-27T05:50:00.480Z,54.10
2022-08-27T05:52:31.232Z,53.41
2022-08-27T05:55:02.225Z,52.99
2022-08-27T05:57:31.563Z,52.69
2022-08-27T06:00:25.231Z,52.16
2022-08-27T06:02:55.449Z,51.57
2022-08-27T06:05:24.549Z,50.75
2022-08-27T06:07:53.622Z,49.69
2022-08-27T06:10:23.860Z,49.43
2022-08-27T06:12:56.985Z,48.82
2022-08-27T06:15:28.629Z,48.13
2022-08-27T06:18:01.014Z,47.81
2022-08-27T06:20:32.722Z,47.57
2022-08-27T06:23:02.743Z,48.61
2022-08-27T06:25:34.077Z,48.95
2022-08-27T06:28:04.064Z,49.28
2022-08-27T06:30:39.064Z,48.64
2022-08-27T06:33:11.484Z,48.69
2022-08-27T06:35:40.437Z,48.49
2022-08-27T06:38:08.885Z,47.64
2022-08-27T06:40:42.559Z,47.07
2022-08-27T06:43:19.356Z,46.30
2022-08-27T06:45:51.872Z,45.73
2022-08-27T06:48:20.944Z,45.50
2022-08-27T06:50:49.517Z,44.99
2022-08-27T06:53:24.339Z,43.69
2022-08-27T06:55:53.902Z,42.91
2022-08-27T06:58:25.009Z,42.07
2022-08-27T07:00:53.472Z,41.49
2022-08-27T07:03:23.747Z,41.45
2022-08-27T07:05:54.862Z,41.24
2022-08-27T07:08:27.605Z,40.76
2022-08-27T07:10:59.510Z,39.69
2022-08-27T07:13:31.665Z,39.40
2022-08-27T07:16:08.791Z,39.54
2022-08-27T07:18:39.899Z,39.09
2022-08-27T07:21:12.809Z,39.09
2022-08-27T07:23:42.569Z,38.19
2022-08-27T07:26:13.841Z,37.16
2022-08-27T07:28:50.675Z,35.67
2022-08-27T07:31:27.376Z,35.11
2022-08-27T07:33:57.605Z,34.97
2022-08-27T07:36:31.706Z,34.76
2022-08-27T07:39:01.958Z,34.63
2022-08-27T07:41:54.673Z,33.85
2022-08-27T07:44:34.276Z,33.85
2022-08-27T07:47:05.665Z,33.86
2022-08-27T07:49:35.911Z,33.70
2022-08-27T07:52:09.041Z,33.73
2022-08-27T07:54:39.382Z,32.89
2022-08-27T07:57:13.157Z,32.66
2022-08-27T07:59:45.747Z,32.95
2022-08-27T08:02:15.926Z,32.79
2022-08-27T08:04:49.804Z,31.69
2022-08-27T08:07:19.090Z,31.06
2022-08-27T08:09:54.056Z,30.86
2022-08-27T08:12:26.601Z,31.13
2022-08-27T08:14:59.180Z,30.81
2022-08-27T08:17:29.646Z,30.74
2022-08-27T08:20:20.033Z,30.35
2022-08-27T08:22:49.547Z,30.54
2022-08-27T08:25:22.052Z,30.41
2022-08-27T08:27:54.256Z,30.53
2022-08-27T08:30:24.818Z,30.27
2022-08-27T08:32:55.840Z,29.64
2022-08-27T08:35:27.524Z,29.55
2022-08-27T08:38:04.349Z,29.36
2022-08-27T08:40:39.763Z,27.68
2022-08-27T08:43:20.118Z,27.44
2022-08-27T08:45:52.289Z,27.52
2022-08-27T08:48:25.008Z,27.46
2022-08-27T08:51:06.878Z,27.43
2022-08-27T08:53:53.642Z,26.44
2022-08-27T08:56:33.249Z,25.99
2022-08-27T08:59:24.302Z,25.93
2022-08-27T09:01:56.932Z,25.30
2022-08-27T09:04:29.833Z,25.57
2022-08-27T09:07:10.858Z,26.74
2022-08-27T09:10:02.757Z,26.17
2022-08-27T09:12:35.306Z,25.98
2022-08-27T09:15:12.478Z,25.71
2022-08-27T09:17:46.097Z,25.67
2022-08-27T09:20:19.236Z,25.44
2022-08-27T09:23:07.558Z,24.78
2022-08-27T09:25:42.694Z,25.40
2022-08-27T09:28:33.261Z,25.75
2022-08-27T09:31:13.485Z,25.35
2022-08-27T09:33:56.114Z,24.65
2022-08-27T09:36:27.411Z,24.48
2022-08-27T09:39:00.838Z,24.37
2022-08-27T09:41:36.795Z,23.86
2022-08-27T09:44:12.755Z,24.13
2022-08-27T09:46:53.761Z,23.82
2022-08-27T09:49:24.380Z,23.08
2022-08-27T09:51:57.514Z,22.31
2022-08-27T09:54:42.730Z,22.34
2022-08-27T09:57:16.469Z,21.51
2022-08-27T09:59:55.768Z,22.12
2022-08-27T10:02:27.305Z,20.77
2022-08-27T10:05:04.109Z,20.14
2022-08-27T10:07:58.318Z,19.75
2022-08-27T10:10:48.207Z,19.67
2022-08-27T10:13:42.039Z,19.03
2022-08-27T10:16:26.820Z,18.40
2022-08-27T10:19:33.354Z,18.60
2022-08-27T10:22:19.252Z,18.23
2022-08-27T10:25:05.245Z,18.21
2022-08-27T10:28:05.661Z,17.67
2022-08-27T10:30:57.009Z,17.78
2022-08-27T10:33:37.079Z,17.16
2022-08-27T10:36:25.161Z,17.32
2022-08-27T10:39:39.669Z,17.71
2022-08-27T10:42:33.541Z,17.67
2022-08-27T10:45:55.792Z,17.27
2022-08-27T10:49:18.354Z,17.01
2022-08-27T10:52:08.108Z,16.36
2022-08-27T10:54:44.703Z,16.47
2022-08-27T10:57:45.405Z,16.75
2022-08-27T11:00:21.816Z,16.86
2022-08-27T11:03:03.674Z,17.13
2022-08-27T11:05:37.125Z,17.61
2022-08-27T11:08:29.916Z,17.89
2022-08-27T11:11:56.952Z,17.71
2022-08-27T11:14:08.691Z,17.71
2022-08-27T11:16:51.762Z,17.12
2022-08-27T11:19:26.572Z,17.88
2022-08-27T11:22:26.342Z,17.27
2022-08-27T11:24:57.685Z,16.93
2022-08-27T11:27:29.512Z,16.43
2022-08-27T11:30:16.773Z,16.62
2022-08-27T11:33:21.398Z,16.80
2022-08-27T11:35:56.552Z,17.36
2022-08-27T11:38:29.412Z,17.49
2022-08-27T11:41:09.323Z,17.70
2022-08-27T11:43:38.141Z,17.73
2022-08-27T11:46:08.916Z,17.91
2022-08-27T11:48:36.984Z,17.92
2022-08-27T11:51:09.338Z,17.81
2022-08-27T11:53:54.691Z,18.03
2022-08-27T11:56:25.824Z,17.79
2022-08-27T11:58:54.323Z,17.24
2022-08-27T12:01:28.469Z,17.43
2022-08-27T12:04:07.429Z,17.71
2022-08-27T12:06:50.434Z,17.53
2022-08-27T12:09:22.366Z,17.02
2022-08-27T12:12:11.687Z,17.16
2022-08-27T12:14:53.410Z,17.04
2022-08-27T12:17:46.615Z,16.98
2022-08-27T12:20:46.357Z,16.87
2022-08-27T12:23:45.310Z,16.95
2022-08-27T12:26:17.575Z,16.84
2022-08-27T12:28:47.843Z,17.77
2022-08-27T12:31:21.956Z,17.73
2022-08-27T12:33:57.377Z,17.58
2022-08-27T12:36:28.380Z,17.63
2022-08-27T12:38:58.629Z,17.58
2022-08-27T12:41:43.609Z,16.97
2022-08-27T12:44:34.539Z,17.14
2022-08-27T12:47:07.945Z,17.15
2022-08-27T12:49:46.494Z,17.59
2022-08-27T12:52:35.676Z,17.51
2022-08-27T12:55:30.712Z,17.32
2022-08-27T12:57:59.286Z,17.67
2022-08-27T13:00:36.137Z,17.89
2022-08-27T13:03:11.265Z,17.84
2022-08-27T13:05:45.733Z,17.85
2022-08-27T13:08:27.938Z,17.49
2022-08-27T13:10:58.076Z,17.36
2022-08-27T13:13:26.577Z,17.05
2022-08-27T13:15:59.625Z,17.43
2022-08-27T13:18:29.553Z,17.18
2022-08-27T13:21:33.237Z,17.32
2022-08-27T13:24:06.566Z,17.54
2022-08-27T13:26:37.723Z,17.70
2022-08-27T13:29:13.732Z,17.54
2022-08-27T13:31:42.638Z,17.83
2022-08-27T13:34:16.021Z,17.83
2022-08-27T13:37:02.575Z,17.56
2022-08-27T13:39:38.352Z,17.73
2022-08-27T13:42:09.661Z,17.48
2022-08-27T13:44:40.209Z,17.27
2022-08-27T13:47:18.551Z,17.10
2022-08-27T13:49:46.514Z,16.80
2022-08-27T13:53:05.737Z,16.98
2022-08-27T13:55:40.197Z,17.99
2022-08-27T13:58:14.414Z,18.73
2022-08-27T14:00:43.597Z,18.91
2022-08-27T14:03:27.122Z,18.42
2022-08-27T14:05:57.239Z,18.35
2022-08-27T14:08:31.826Z,18.09
2022-08-27T14:11:07.186Z,18.29
2022-08-27T14:13:43.520Z,18.48
2022-08-27T14:16:29.130Z,18.93
2022-08-27T14:19:11.563Z,18.87
2022-08-27T14:21:42.515Z,19.05
2022-08-27T14:24:12.221Z,19.53
2022-08-27T14:26:40.425Z,18.92
2022-08-27T14:29:11.847Z,18.68
2022-08-27T14:31:41.966Z,18.76
2022-08-27T14:34:12.164Z,19.50
2022-08-27T14:36:42.410Z,18.84
2022-08-27T14:39:11.313Z,18.68
2022-08-27T14:41:39.814Z,18.76
2022-08-27T14:44:09.393Z,18.46
2022-08-27T14:46:41.422Z,18.16
2022-08-27T14:49:18.155Z,18.57
2022-08-27T14:51:46.406Z,18.27
2022-08-27T14:54:16.060Z,18.66
2022-08-27T14:56:44.743Z,18.17
2022-08-27T14:59:12.471Z,18.15
2022-08-27T15:01:41.262Z,17.89
2022-08-27T15:04:09.581Z,17.80
2022-08-27T15:06:37.599Z,18.02
2022-08-27T15:09:06.509Z,18.66
2022-08-27T15:11:36.655Z,19.16
2022-08-27T15:14:06.722Z,18.84
2022-08-27T15:16:39.046Z,18.35
2022-08-27T15:19:08.855Z,18.57
2022-08-27T15:21:39.755Z,18.58
2022-08-27T15:24:28.546Z,18.52
2022-08-27T15:27:00.120Z,18.98
2022-08-27T15:29:30.074Z,19.28
2022-08-27T15:31:58.637Z,18.86
2022-08-27T15:34:27.653Z,19.63
2022-08-27T15:36:57.305Z,19.65
2022-08-27T15:39:28.722Z,19.49
2022-08-27T15:42:07.268Z,19.14
2022-08-27T15:44:39.557Z,19.55
2022-08-27T15:47:07.396Z,19.90
2022-08-27T15:49:35.728Z,20.29
2022-08-27T15:52:04.797Z,20.88
2022-08-27T15:54:33.047Z,20.76
2022-08-27T15:57:02.574Z,20.64
2022-08-27T15:59:30.342Z,19.99
2022-08-27T16:02:00.717Z,20.37
2022-08-27T16:04:30.192Z,20.63
2022-08-27T16:06:58.299Z,20.91
2022-08-27T16:09:28.612Z,20.68
2022-08-27T16:11:58.636Z,21.03
2022-08-27T16:14:27.008Z,21.49
2022-08-27T16:16:56.440Z,21.82
2022-08-27T16:19:24.976Z,21.78
2022-08-27T16:21:54.482Z,22.16
2022-08-27T16:24:23.084Z,23.57
2022-08-27T16:26:52.013Z,23.69
2022-08-27T16:29:20.867Z,23.93
2022-08-27T16:31:50.128Z,24.17
2022-08-27T16:34:22.809Z,24.17
2022-08-27T16:36:51.107Z,23.75
2022-08-27T16:39:20.369Z,24.45
2022-08-27T16:41:49.423Z,25.22
2022-08-27T16:44:18.087Z,24.96
2022-08-27T16:46:46.850Z,25.36
2022-08-27T16:49:33.468Z,25.75
2022-08-27T16:52:03.560Z,26.02
2022-08-27T16:54:34.882Z,26.71
2022-08-27T16:57:02.926Z,26.48
2022-08-27T16:59:31.603Z,27.04
2022-08-27T17:01:59.575Z,27.10
2022-08-27T17:04:36.713Z,27.62
2022-08-27T17:07:06.133Z,27.28
2022-08-27T17:09:35.071Z,28.07
2022-08-27T17:12:05.454Z,27.56
2022-08-27T17:14:38.047Z,27.65
2022-08-27T17:17:06.243Z,28.48
2022-08-27T17:19:34.922Z,30.97
2022-08-27T17:22:04.533Z,29.44
2022-08-27T17:24:32.578Z,30.54
2022-08-27T17:27:01.410Z,30.49
2022-08-27T17:29:30.075Z,30.43
2022-08-27T17:31:58.200Z,30.50
2022-08-27T17:34:28.866Z,29.68
2022-08-27T17:37:00.436Z,29.56
2022-08-27T17:39:31.143Z,29.29
2022-08-27T17:41:59.855Z,29.81
2022-08-27T17:44:31.781Z,31.06
2022-08-27T17:47:03.670Z,32.15
2022-08-27T17:49:31.975Z,31.99
2022-08-27T17:52:04.219Z,32.82
2022-08-27T17:54:41.229Z,33.22
2022-08-27T17:57:40.970Z,32.82
2022-08-27T18:00:11.829Z,33.05
2022-08-27T18:02:48.586Z,32.62
2022-08-27T18:05:18.833Z,32.82
2022-08-27T18:07:47.989Z,32.71
2022-08-27T18:10:18.889Z,32.67
2022-08-27T18:12:48.142Z,33.68
2022-08-27T18:15:18.653Z,34.15
2022-08-27T18:17:53.267Z,34.80
2022-08-27T18:20:27.901Z,35.46
2022-08-27T18:22:56.893Z,35.52
2022-08-27T18:25:29.082Z,35.49
2022-08-27T18:28:01.909Z,35.47
2022-08-27T18:30:31.750Z,35.69
2022-08-27T18:33:02.733Z,36.06
2022-08-27T18:35:32.738Z,35.13
2022-08-27T18:38:02.373Z,35.12
2022-08-27T18:40:38.341Z,35.23
2022-08-27T18:43:07.205Z,35.78
2022-08-27T18:45:37.768Z,35.22
2022-08-27T18:48:16.886Z,35.61
2022-08-27T18:50:49.087Z,35.46
2022-08-27T18:53:20.491Z,35.55
2022-08-27T18:55:53.514Z,34.79
2022-08-27T18:58:22.796Z,34.60
2022-08-27T19:00:56.469Z,34.74
2022-08-27T19:03:39.535Z,35.66
2022-08-27T19:06:09.683Z,35.88
2022-08-27T19:08:39.766Z,36.60
2022-08-27T19:11:10.730Z,36.09
2022-08-27T19:13:41.812Z,36.28
2022-08-27T19:16:18.934Z,36.50
2022-08-27T19:18:48.098Z,36.24
2022-08-27T19:21:16.566Z,36.30
2022-08-27T19:23:44.299Z,36.52
2022-08-27T19:26:19.347Z,36.34
2022-08-27T19:28:49.729Z,37.56
2022-08-27T19:31:20.086Z,37.42
2022-08-27T19:33:49.280Z,38.06
2022-08-27T19:36:20.176Z,37.95
2022-08-27T19:38:53.212Z,38.54
2022-08-27T19:41:27.295Z,38.59
2022-08-27T19:43:56.768Z,38.75
2022-08-27T19:46:26.026Z,39.07
2022-08-27T19:48:55.463Z,39.39
2022-08-27T19:51:24.647Z,39.43
2022-08-27T19:53:53.227Z,39.02
2022-08-27T19:56:21.542Z,39.81
2022-08-27T19:58:55.235Z,39.75
2022-08-27T20:01:25.502Z,39.57
2022-08-27T20:03:58.823Z,39.73
2022-08-27T20:06:28.188Z,39.60
2022-08-27T20:08:56.852Z,39.35
2022-08-27T20:11:25.645Z,40.76
2022-08-27T20:13:58.700Z,41.13
2022-08-27T20:16:28.833Z,40.86
2022-08-27T20:19:02.430Z,40.26
2022-08-27T20:21:37.260Z,40.66
2022-08-27T20:24:07.600Z,40.81
2022-08-27T20:26:39.352Z,41.21
2022-08-27T20:29:14.934Z,40.79
2022-08-27T20:32:04.363Z,42.20
2022-08-27T20:34:35.060Z,41.95
2022-08-27T20:37:04.007Z,41.93
2022-08-27T20:39:32.437Z,41.69
2022-08-27T20:42:01.640Z,42.00
2022-08-27T20:44:30.202Z,42.36
2022-08-27T20:47:00.171Z,41.31
2022-08-27T20:49:30.488Z,42.25
2022-08-27T20:52:03.984Z,42.82
2022-08-27T20:54:35.127Z,43.16
2022-08-27T20:57:04.407Z,43.27
2022-08-27T20:59:51.505Z,43.29
2022-08-27T21:02:24.089Z,42.91
2022-08-27T21:04:52.779Z,43.86
2022-08-27T21:07:23.118Z,42.90
2022-08-27T21:09:57.068Z,43.23
2022-08-27T21:12:28.321Z,43.07
2022-08-27T21:14:59.295Z,44.72
2022-08-27T21:17:29.021Z,44.70
2022-08-27T21:19:57.856Z,44.54
2022-08-27T21:22:25.631Z,44.76
2022-08-27T21:24:53.901Z,44.59
2022-08-27T21:27:22.056Z,45.48
2022-08-27T21:29:50.550Z,45.49
2022-08-27T21:32:19.288Z,44.86
2022-08-27T21:34:49.590Z,45.50
2022-08-27T21:37:18.521Z,45.39
2022-08-27T21:39:46.584Z,45.61
2022-08-27T21:42:15.823Z,45.08
2022-08-27T21:44:44.772Z,45.11
2022-08-27T21:47:13.002Z,45.74
2022-08-27T21:49:42.129Z,45.75
2022-08-27T21:52:11.892Z,45.50
2022-08-27T21:54:42.989Z,45.90
2022-08-27T21:57:14.053Z,45.84
2022-08-27T21:59:45.941Z,46.59
2022-08-27T22:02:38.747Z,47.57
2022-08-27T22:05:09.442Z,47.04
2022-08-27T22:07:37.318Z,47.32
2022-08-27T22:10:08.069Z,46.28
2022-08-27T22:12:38.400Z,46.63
2022-08-27T22:15:11.448Z,46.63
2022-08-27T22:17:41.477Z,46.09
2022-08-27T22:20:15.356Z,47.23
2022-08-27T22:22:46.241Z,49.10
2022-08-27T22:25:17.933Z,48.35
2022-08-27T22:27:47.910Z,48.56
2022-08-27T22:30:21.143Z,48.06
2022-08-27T22:32:54.928Z,48.34
2022-08-27T22:35:29.118Z,48.32
2022-08-27T22:38:01.294Z,48.34
2022-08-27T22:40:35.744Z,48.13
2022-08-27T22:43:09.647Z,49.07
2022-08-27T22:45:44.391Z,51.81
2022-08-27T22:48:15.567Z,52.02
2022-08-27T22:50:51.169Z,50.71
2022-08-27T22:53:21.768Z,49.79
2022-08-27T22:55:54.211Z,50.19
2022-08-27T22:58:25.161Z,50.65
2022-08-27T23:00:57.819Z,51.01
2022-08-27T23:03:27.578Z,50.61
2022-08-27T23:06:00.223Z,50.33
2022-08-27T23:08:32.701Z,50.68
2022-08-27T23:11:05.615Z,51.57
2022-08-27T23:13:35.275Z,51.52
2022-08-27T23:16:06.467Z,50.80
2022-08-27T23:18:36.782Z,51.51
2022-08-27T23:21:14.179Z,51.33
2022-08-27T23:23:44.328Z,50.30
2022-08-27T23:26:33.383Z,50.20
2022-08-27T23:29:04.574Z,50.24
2022-08-27T23:31:38.357Z,50.87
2022-08-27T23:34:10.633Z,54.88
2022-08-27T23:36:42.127Z,54.14
2022-08-27T23:39:12.019Z,53.38
2022-08-27T23:41:45.384Z,52.44
2022-08-27T23:44:16.540Z,51.45
2022-08-27T23:46:48.940Z,51.26
2022-08-27T23:49:22.430Z,50.92
2022-08-27T23:51:53.376Z,51.20
2022-08-27T23:54:24.494Z,50.79
2022-08-27T23:56:58.035Z,51.10
2022-08-27T23:59:30.458Z,51.52
